createdAt,value
2019-03-17T16:09:23.482Z,1001.74
2019-03-17T16:10:23.475Z,1001.76
2019-03-17T16:11:30.792Z,1001.77
2019-03-17T16:12:24.561Z,1001.76
2019-03-17T16:13:23.431Z,1001.76
2019-03-17T16:14:23.413Z,1001.78
2019-03-17T16:15:23.425Z,1001.95
2019-03-17T16:16:23.403Z,1001.89
2019-03-17T16:17:23.384Z,1001.94
2019-03-17T16:18:23.463Z,1001.95
2019-03-17T16:19:23.378Z,1001.97
2019-03-17T16:20:23.379Z,1001.97
2019-03-17T16:21:23.342Z,1002.00
2019-03-17T16:22:23.333Z,1002.04
2019-03-17T16:23:23.322Z,1002.07
2019-03-17T16:24:23.322Z,1002.08
2019-03-17T16:25:23.321Z,1002.05
2019-03-17T16:26:23.294Z,1002.06
2019-03-17T16:27:23.280Z,1002.07
2019-03-17T16:28:23.269Z,1002.15
2019-03-17T16:29:23.270Z,1002.08
2019-03-17T16:30:23.267Z,1002.10
2019-03-17T16:31:23.257Z,1002.06
2019-03-17T16:32:23.227Z,1002.06
2019-03-17T16:33:23.218Z,1002.10
2019-03-17T16:34:23.206Z,1002.11
2019-03-17T16:35:23.214Z,1002.17
2019-03-17T16:36:23.184Z,1002.17
2019-03-17T16:37:23.186Z,1002.19
2019-03-17T16:38:23.167Z,1002.20
2019-03-17T16:39:23.155Z,1002.17
2019-03-17T16:40:23.163Z,1002.15
2019-03-17T16:41:23.131Z,1002.23
2019-03-17T16:42:23.126Z,1002.20
2019-03-17T16:43:23.122Z,1002.20
2019-03-17T16:44:23.103Z,1002.21
2019-03-17T16:45:31.003Z,1002.23
2019-03-17T16:46:23.083Z,1002.28
2019-03-17T16:47:23.074Z,1002.28
2019-03-17T16:48:23.068Z,1002.30
2019-03-17T16:49:23.054Z,1002.31
2019-03-17T16:50:23.077Z,1002.39
2019-03-17T16:51:23.028Z,1002.39
2019-03-17T16:52:23.027Z,1002.37
2019-03-17T16:53:23.019Z,1002.40
2019-03-17T16:54:23.002Z,1002.47
2019-03-17T16:55:23.033Z,1002.42
2019-03-17T16:56:22.979Z,1002.47
2019-03-17T16:57:22.966Z,1002.45
2019-03-17T16:58:22.957Z,1002.50
2019-03-17T16:59:22.946Z,1002.51
2019-03-17T17:00:22.968Z,1002.54
2019-03-17T17:01:22.926Z,1002.53
2019-03-17T17:02:22.911Z,1002.48
2019-03-17T17:03:22.902Z,1002.50
2019-03-17T17:04:22.893Z,1002.54
2019-03-17T17:05:22.900Z,1002.59
2019-03-17T17:06:22.881Z,1002.58
2019-03-17T17:07:22.860Z,1002.47
2019-03-17T17:08:22.872Z,1002.65
2019-03-17T17:09:22.838Z,1002.63
2019-03-17T17:10:22.859Z,1002.60
2019-03-17T17:11:22.828Z,1002.64
2019-03-17T17:12:22.830Z,1002.66
2019-03-17T17:13:22.797Z,1002.61
2019-03-17T17:14:22.784Z,1002.64
2019-03-17T17:15:22.799Z,1002.60
2019-03-17T17:16:22.765Z,1002.64
2019-03-17T17:17:22.757Z,1002.64
2019-03-17T17:18:22.766Z,1002.70
2019-03-17T17:19:22.742Z,1002.62
2019-03-17T17:20:23.127Z,1002.69
2019-03-17T17:21:22.714Z,1002.70
2019-03-17T17:22:22.703Z,1002.76
2019-03-17T17:23:22.700Z,1002.66
2019-03-17T17:24:22.721Z,1002.75
2019-03-17T17:25:22.701Z,1002.74
2019-03-17T17:26:22.660Z,1002.82
2019-03-17T17:27:22.651Z,1002.75
2019-03-17T17:28:22.641Z,1002.79
2019-03-17T17:29:22.633Z,1002.81
2019-03-17T17:30:22.692Z,1002.80
2019-03-17T17:31:22.617Z,1002.82
2019-03-17T17:32:22.602Z,1002.77
2019-03-17T17:33:22.589Z,1002.82
2019-03-17T17:34:22.587Z,1002.82
2019-03-17T17:35:22.587Z,1002.86
2019-03-17T17:36:22.575Z,1002.85
2019-03-17T17:37:22.555Z,1002.89
2019-03-17T17:38:22.536Z,1002.96
2019-03-17T17:39:22.526Z,1002.97
2019-03-17T17:40:22.551Z,1002.99
2019-03-17T17:41:22.514Z,1002.97
2019-03-17T17:42:22.520Z,1002.96
2019-03-17T17:43:22.487Z,1002.99
2019-03-17T17:44:22.473Z,1003.04
2019-03-17T17:45:22.464Z,1003.00
2019-03-17T17:46:22.474Z,1003.05
2019-03-17T17:47:22.446Z,1003.14
2019-03-17T17:48:22.457Z,1003.16
2019-03-17T17:49:22.424Z,1003.23
2019-03-17T17:50:22.425Z,1003.23
2019-03-17T17:51:22.421Z,1003.26
2019-03-17T17:52:22.391Z,1003.27
2019-03-17T17:53:22.379Z,1003.30
2019-03-17T17:54:22.369Z,1003.33
2019-03-17T17:55:22.378Z,1003.33
2019-03-17T17:56:22.376Z,1003.28
2019-03-17T17:57:22.340Z,1003.35
2019-03-17T17:58:22.336Z,1003.44
2019-03-17T17:59:22.347Z,1003.46
2019-03-17T18:00:22.341Z,1003.49
2019-03-17T18:01:22.329Z,1003.53
2019-03-17T18:02:22.309Z,1003.51
2019-03-17T18:03:22.282Z,1003.52
2019-03-17T18:04:22.269Z,1003.55
2019-03-17T18:05:22.265Z,1003.61
2019-03-17T18:06:22.284Z,1003.60
2019-03-17T18:07:22.238Z,1003.66
2019-03-17T18:08:22.243Z,1003.72
2019-03-17T18:09:22.216Z,1003.75
2019-03-17T18:10:22.210Z,1003.79
2019-03-17T18:11:22.217Z,1003.73
2019-03-17T18:12:22.190Z,1003.82
2019-03-17T18:13:22.191Z,1003.88
2019-03-17T18:14:22.210Z,1003.96
2019-03-17T18:15:22.187Z,1003.95
2019-03-17T18:16:22.165Z,1003.95
2019-03-17T18:17:22.141Z,1003.99
2019-03-17T18:18:22.130Z,1004.11
2019-03-17T18:19:22.121Z,1004.29
2019-03-17T18:20:22.106Z,1004.23
2019-03-17T18:21:22.120Z,1004.32
2019-03-17T18:22:22.089Z,1004.43
2019-03-17T18:23:22.083Z,1004.56
2019-03-17T18:24:22.086Z,1004.56
2019-03-17T18:25:22.054Z,1004.57
2019-03-17T18:26:22.083Z,1004.63
2019-03-17T18:27:22.059Z,1004.80
2019-03-17T18:28:22.024Z,1004.85
2019-03-17T18:29:22.013Z,1004.78
2019-03-17T18:30:22.007Z,1004.81
2019-03-17T18:31:22.026Z,1004.89
2019-03-17T18:32:21.990Z,1004.86
2019-03-17T18:33:21.998Z,1004.87
2019-03-17T18:34:22.003Z,1004.86
2019-03-17T18:35:21.954Z,1004.77
2019-03-17T18:36:22.003Z,1004.87
2019-03-17T18:37:21.937Z,1004.76
2019-03-17T18:38:21.925Z,1004.85
2019-03-17T18:39:21.917Z,1004.95
2019-03-17T18:40:21.924Z,1004.93
2019-03-17T18:41:21.912Z,1004.98
2019-03-17T18:42:32.435Z,1004.98
2019-03-17T18:43:22.871Z,1005.01
2019-03-17T18:44:21.860Z,1005.03
2019-03-17T18:45:21.852Z,1005.00
2019-03-17T18:46:21.879Z,1004.94
2019-03-17T18:47:21.869Z,1004.98
2019-03-17T18:48:21.820Z,1005.02
2019-03-17T18:49:21.813Z,1004.93
2019-03-17T18:50:21.797Z,1004.92
2019-03-17T18:51:21.810Z,1004.87
2019-03-17T18:52:21.775Z,1004.76
2019-03-17T18:53:21.772Z,1004.78
2019-03-17T18:54:21.761Z,1004.76
2019-03-17T18:55:21.752Z,1004.77
2019-03-17T18:56:21.764Z,1004.74
2019-03-17T18:57:21.730Z,1004.89
2019-03-17T18:58:21.713Z,1004.99
2019-03-17T18:59:21.704Z,1004.99
2019-03-17T19:00:21.693Z,1005.06
2019-03-17T19:01:21.715Z,1005.08
2019-03-17T19:02:21.677Z,1005.10
2019-03-17T19:03:21.660Z,1005.09
2019-03-17T19:04:21.656Z,1005.09
2019-03-17T19:05:21.641Z,1005.06
2019-03-17T19:06:21.648Z,1004.99
2019-03-17T19:07:21.632Z,1005.03
2019-03-17T19:08:21.609Z,1005.08
2019-03-17T19:09:21.597Z,1005.06
2019-03-17T19:10:21.585Z,1005.02
2019-03-17T19:11:21.594Z,1005.07
2019-03-17T19:12:21.569Z,1005.03
2019-03-17T19:13:21.578Z,1005.08
2019-03-17T19:14:21.582Z,1005.10
2019-03-17T19:15:21.535Z,1005.12
2019-03-17T19:16:21.540Z,1005.18
2019-03-17T19:17:21.511Z,1005.20
2019-03-17T19:18:21.507Z,1005.19
2019-03-17T19:19:21.502Z,1005.15
2019-03-17T19:20:21.489Z,1005.22
2019-03-17T19:21:21.504Z,1005.22
2019-03-17T19:22:21.483Z,1005.30
2019-03-17T19:23:21.462Z,1005.28
2019-03-17T19:24:21.441Z,1005.31
2019-03-17T19:25:21.427Z,1005.33
2019-03-17T19:26:21.436Z,1005.29
2019-03-17T19:27:21.405Z,1005.28
2019-03-17T19:28:21.395Z,1005.26
2019-03-17T19:29:21.392Z,1005.29
2019-03-17T19:30:21.388Z,1005.29
2019-03-17T19:31:21.384Z,1005.32
2019-03-17T19:32:21.353Z,1005.38
2019-03-17T19:33:21.347Z,1005.36
2019-03-17T19:34:21.344Z,1005.37
2019-03-17T19:35:21.421Z,1005.40
2019-03-17T19:36:21.385Z,1005.45
2019-03-17T19:37:21.303Z,1005.43
2019-03-17T19:38:21.289Z,1005.51
2019-03-17T19:39:21.283Z,1005.48
2019-03-17T19:40:21.280Z,1005.44
2019-03-17T19:41:21.292Z,1005.43
2019-03-17T19:42:21.252Z,1005.47
2019-03-17T19:43:21.238Z,1005.47
2019-03-17T19:44:21.227Z,1005.56
2019-03-17T19:45:21.221Z,1005.48
2019-03-17T19:46:21.226Z,1005.50
2019-03-17T19:47:21.199Z,1005.52
2019-03-17T19:48:21.184Z,1005.54
2019-03-17T19:49:21.173Z,1005.56
2019-03-17T19:50:21.166Z,1005.54
2019-03-17T19:51:21.184Z,1005.62
2019-03-17T19:52:21.140Z,1005.58
2019-03-17T19:53:21.137Z,1005.55
2019-03-17T19:54:21.121Z,1005.58
2019-03-17T19:55:21.114Z,1005.60
2019-03-17T19:56:21.133Z,1005.53
2019-03-17T19:57:21.090Z,1005.55
2019-03-17T19:58:21.086Z,1005.62
2019-03-17T19:59:21.076Z,1005.57
2019-03-17T20:00:21.059Z,1005.56
2019-03-17T20:01:21.047Z,1005.65
2019-03-17T20:02:21.074Z,1005.65
2019-03-17T20:03:21.025Z,1005.66
2019-03-17T20:04:29.889Z,1005.68
2019-03-17T20:05:22.026Z,1005.64
2019-03-17T20:06:20.994Z,1005.66
2019-03-17T20:07:21.014Z,1005.79
2019-03-17T20:08:21.033Z,1005.74
2019-03-17T20:09:20.962Z,1005.78
2019-03-17T20:10:20.954Z,1005.80
2019-03-17T20:11:20.952Z,1005.80
2019-03-17T20:12:20.954Z,1005.84
2019-03-17T20:13:20.919Z,1005.75
2019-03-17T20:14:20.914Z,1005.80
2019-03-17T20:15:20.901Z,1005.84
2019-03-17T20:16:20.890Z,1005.84
2019-03-17T20:17:20.899Z,1005.94
2019-03-17T20:18:20.866Z,1005.88
2019-03-17T20:19:20.865Z,1005.93
2019-03-17T20:20:20.856Z,1005.94
2019-03-17T20:21:20.835Z,1005.96
2019-03-17T20:22:20.843Z,1006.00
2019-03-17T20:23:21.584Z,1006.00
2019-03-17T20:24:20.803Z,1006.04
2019-03-17T20:25:20.798Z,1006.03
2019-03-17T20:26:20.805Z,1006.00
2019-03-17T20:27:20.798Z,1006.04
2019-03-17T20:28:20.775Z,1006.14
2019-03-17T20:29:20.750Z,1006.19
2019-03-17T20:30:20.740Z,1006.22
2019-03-17T20:31:20.732Z,1006.13
2019-03-17T20:32:20.747Z,1006.19
2019-03-17T20:33:20.709Z,1006.19
2019-03-17T20:34:21.438Z,1006.22
2019-03-17T20:35:21.002Z,1006.25
2019-03-17T20:36:20.973Z,1006.26
2019-03-17T20:37:20.689Z,1006.22
2019-03-17T20:38:20.670Z,1006.23
2019-03-17T20:39:20.661Z,1006.26
2019-03-17T20:40:20.637Z,1006.30
2019-03-17T20:41:20.624Z,1006.30
2019-03-17T20:42:20.649Z,1006.32
2019-03-17T20:43:34.151Z,1006.34
2019-03-17T20:44:21.599Z,1006.33
2019-03-17T20:45:20.797Z,1006.26
2019-03-17T20:46:20.572Z,1006.35
2019-03-17T20:47:20.580Z,1006.34
2019-03-17T20:48:20.757Z,1006.38
2019-03-17T20:49:20.567Z,1006.39
2019-03-17T20:50:20.567Z,1006.33
2019-03-17T20:51:20.531Z,1006.35
2019-03-17T20:52:20.529Z,1006.34
2019-03-17T20:53:20.496Z,1006.35
2019-03-17T20:54:20.493Z,1006.37
2019-03-17T20:55:20.495Z,1006.36
2019-03-17T20:56:20.479Z,1006.37
2019-03-17T20:57:20.494Z,1006.37
2019-03-17T20:58:20.493Z,1006.35
2019-03-17T20:59:20.500Z,1006.38
2019-03-17T21:00:20.422Z,1006.35
2019-03-17T21:01:20.413Z,1006.39
2019-03-17T21:02:20.421Z,1006.41
2019-03-17T21:03:20.436Z,1006.37
2019-03-17T21:04:20.381Z,1006.39
2019-03-17T21:05:20.369Z,1006.42
2019-03-17T21:06:20.359Z,1006.42
2019-03-17T21:07:20.368Z,1006.42
2019-03-17T21:08:20.356Z,1006.46
2019-03-17T21:09:20.351Z,1006.38
2019-03-17T21:10:20.319Z,1006.46
2019-03-17T21:11:20.310Z,1006.41
2019-03-17T21:12:20.316Z,1006.48
2019-03-17T21:13:20.286Z,1006.44
2019-03-17T21:14:20.280Z,1006.41
2019-03-17T21:15:20.314Z,1006.45
2019-03-17T21:16:20.259Z,1006.39
2019-03-17T21:17:20.250Z,1006.46
2019-03-17T21:18:20.294Z,1006.40
2019-03-17T21:19:20.223Z,1006.43
2019-03-17T21:20:20.215Z,1006.41
2019-03-17T21:21:20.221Z,1006.36
2019-03-17T21:22:20.214Z,1006.37
2019-03-17T21:23:20.186Z,1006.46
2019-03-17T21:24:20.171Z,1006.47
2019-03-17T21:25:20.157Z,1006.54
2019-03-17T21:26:20.207Z,1006.60
2019-03-17T21:27:20.441Z,1006.57
2019-03-17T21:28:20.129Z,1006.60
2019-03-17T21:29:20.121Z,1006.59
2019-03-17T21:30:20.117Z,1006.64
2019-03-17T21:31:20.115Z,1006.55
2019-03-17T21:32:20.106Z,1006.57
2019-03-17T21:33:20.106Z,1006.53
2019-03-17T21:34:20.065Z,1006.58
2019-03-17T21:35:20.123Z,1006.56
2019-03-17T21:36:20.044Z,1006.62
2019-03-17T21:37:20.061Z,1006.60
2019-03-17T21:38:20.056Z,1006.65
2019-03-17T21:39:20.071Z,1006.65
2019-03-17T21:40:20.000Z,1006.66
2019-03-17T21:41:20.003Z,1006.70
2019-03-17T21:42:20.006Z,1006.65
2019-03-17T21:43:20.009Z,1006.62
2019-03-17T21:44:19.983Z,1006.69
2019-03-17T21:45:19.946Z,1006.69
2019-03-17T21:46:19.949Z,1006.66
2019-03-17T21:47:19.936Z,1006.70
2019-03-17T21:48:19.936Z,1006.69
2019-03-17T21:49:19.923Z,1006.68
2019-03-17T21:50:19.906Z,1006.78
2019-03-17T21:51:19.887Z,1006.73
2019-03-17T21:52:19.872Z,1006.77
2019-03-17T21:53:19.882Z,1006.75
2019-03-17T21:54:19.851Z,1006.84
2019-03-17T21:55:19.866Z,1006.85
2019-03-17T21:56:19.852Z,1006.95
2019-03-17T21:57:19.822Z,1007.00
2019-03-17T21:58:19.840Z,1007.09
2019-03-17T21:59:19.803Z,1007.12
2019-03-17T22:00:19.790Z,1007.24
2019-03-17T22:01:19.796Z,1007.24
2019-03-17T22:02:19.770Z,1007.33
2019-03-17T22:03:19.780Z,1007.37
2019-03-17T22:04:19.746Z,1007.33
2019-03-17T22:05:19.744Z,1007.20
2019-03-17T22:06:19.735Z,1007.30
2019-03-17T22:07:19.727Z,1007.29
2019-03-17T22:08:19.768Z,1007.39
2019-03-17T22:09:19.694Z,1007.35
2019-03-17T22:10:19.683Z,1007.36
2019-03-17T22:11:19.672Z,1007.34
2019-03-17T22:12:19.693Z,1007.32
2019-03-17T22:13:19.684Z,1007.32
2019-03-17T22:14:19.654Z,1007.35
2019-03-17T22:15:19.631Z,1007.27
2019-03-17T22:16:19.634Z,1007.35
2019-03-17T22:17:19.608Z,1007.34
2019-03-17T22:18:19.616Z,1007.31
2019-03-17T22:19:19.593Z,1007.23
2019-03-17T22:20:19.579Z,1007.16
2019-03-17T22:21:19.568Z,1007.25
2019-03-17T22:22:19.570Z,1007.17
2019-03-17T22:23:19.565Z,1007.10
2019-03-17T22:24:19.534Z,1007.10
2019-03-17T22:25:19.534Z,1007.16
2019-03-17T22:26:19.527Z,1007.08
2019-03-17T22:27:19.512Z,1007.13
2019-03-17T22:28:19.826Z,1007.09
2019-03-17T22:29:19.489Z,1007.12
2019-03-17T22:30:19.489Z,1007.16
2019-03-17T22:31:19.461Z,1007.08
2019-03-17T22:32:19.451Z,1007.14
2019-03-17T22:33:19.479Z,1007.18
2019-03-17T22:34:19.430Z,1007.14
2019-03-17T22:35:19.431Z,1007.19
2019-03-17T22:36:19.409Z,1007.17
2019-03-17T22:37:19.398Z,1007.14
2019-03-17T22:38:19.405Z,1007.17
2019-03-17T22:39:19.394Z,1007.16
2019-03-17T22:40:19.365Z,1007.13
2019-03-17T22:41:19.355Z,1007.15
2019-03-17T22:42:19.345Z,1007.12
2019-03-17T22:43:19.353Z,1007.13
2019-03-17T22:44:24.339Z,1007.15
2019-03-17T22:45:20.348Z,1007.15
2019-03-17T22:46:19.306Z,1007.20
2019-03-17T22:47:19.291Z,1007.20
2019-03-17T22:48:19.309Z,1007.19
2019-03-17T22:49:19.279Z,1007.20
2019-03-17T22:50:19.259Z,1007.21
2019-03-17T22:51:19.252Z,1007.28
2019-03-17T22:52:19.245Z,1007.25
2019-03-17T22:53:19.249Z,1007.26
2019-03-17T22:54:19.221Z,1007.32
2019-03-17T22:55:19.209Z,1007.35
2019-03-17T22:56:19.197Z,1007.31
2019-03-17T22:57:19.186Z,1007.32
2019-03-17T22:58:19.183Z,1007.30
2019-03-17T22:59:19.200Z,1007.29
2019-03-17T23:00:19.176Z,1007.31
2019-03-17T23:01:19.147Z,1007.29
2019-03-17T23:02:19.141Z,1007.33
2019-03-17T23:03:19.135Z,1007.34
2019-03-17T23:04:21.943Z,1007.33
2019-03-17T23:05:19.105Z,1007.30
2019-03-17T23:06:19.107Z,1007.32
2019-03-17T23:07:19.079Z,1007.31
2019-03-17T23:08:19.073Z,1007.36
2019-03-17T23:09:19.082Z,1007.31
2019-03-17T23:10:19.047Z,1007.37
2019-03-17T23:11:19.055Z,1007.32
2019-03-17T23:12:19.039Z,1007.32
2019-03-17T23:13:19.015Z,1007.37
2019-03-17T23:14:19.028Z,1007.33
2019-03-17T23:15:18.998Z,1007.34
2019-03-17T23:16:18.986Z,1007.34
2019-03-17T23:17:18.985Z,1007.34
2019-03-17T23:18:18.966Z,1007.36
2019-03-17T23:19:18.973Z,1007.36
2019-03-17T23:20:18.943Z,1007.41
2019-03-17T23:21:18.933Z,1007.40
2019-03-17T23:22:18.920Z,1007.48
2019-03-17T23:23:18.915Z,1007.48
2019-03-17T23:24:18.923Z,1007.48
2019-03-17T23:25:18.894Z,1007.44
2019-03-17T23:26:18.879Z,1007.43
2019-03-17T23:27:18.870Z,1007.47
2019-03-17T23:28:18.856Z,1007.42
2019-03-17T23:29:18.866Z,1007.45
2019-03-17T23:30:18.934Z,1007.47
2019-03-17T23:31:18.827Z,1007.49
